ENT7160 LTAI-EPKT
Flight info
| Callsign | ENT7160 |
|---|---|
| Flight time | 2h 26m |
| Altitude | 36000 |
| Route | EKSEN UT337 OSVEL UL619 MAKOL DCT ARGES DCT KARIL DCT KEKED DCT LENOV |
| Aircraft | B738/M-SDFGHIJ1RWXY/LB1 |
Departure
| Time | 2026-05-04 19:43 |
|---|---|
| Airport | Antalya International Airport (LTAI) |
Arrival
| Time | 2026-05-04 22:10 |
|---|---|
| Airport | Katowice Wojciech Korfanty International Airport (EPKT) |
| Time | Latitude | Longitude | Altitude | Speed | Heading |
|---|---|---|---|---|---|
| 2026-05-04 19:20 | 36.91512 | 30.80028 | 190 ft | 0 kts | 58° |
| 2026-05-04 19:31 | 36.91509 | 30.80022 | 190 ft | 2 kts | 58° |
| 2026-05-04 19:32 | 36.91501 | 30.80004 | 207 ft | 2 kts | 61° |
| 2026-05-04 19:32 | 36.91493 | 30.79986 | 204 ft | 2 kts | 64° |
| 2026-05-04 19:32 | 36.91486 | 30.79967 | 203 ft | 2 kts | 71° |
| 2026-05-04 19:32 | 36.91482 | 30.79947 | 194 ft | 2 kts | 85° |
| 2026-05-04 19:33 | 36.91485 | 30.79927 | 202 ft | 2 kts | 141° |
| 2026-05-04 19:33 | 36.91496 | 30.79921 | 201 ft | 1 kts | 179° |
| 2026-05-04 19:33 | 36.91498 | 30.79921 | 200 ft | 0 kts | 181° |
| 2026-05-04 19:34 | 36.91479 | 30.79919 | 202 ft | 7 kts | 186° |
| 2026-05-04 19:34 | 36.91403 | 30.79907 | 204 ft | 15 kts | 186° |
| 2026-05-04 19:34 | 36.91269 | 30.79890 | 198 ft | 23 kts | 187° |
| 2026-05-04 19:35 | 36.91107 | 30.79868 | 197 ft | 25 kts | 186° |
| 2026-05-04 19:35 | 36.90943 | 30.79845 | 198 ft | 22 kts | 189° |
| 2026-05-04 19:35 | 36.90866 | 30.79753 | 190 ft | 15 kts | 210° |
| 2026-05-04 19:35 | 36.90748 | 30.79729 | 190 ft | 19 kts | 186° |
| 2026-05-04 19:36 | 36.90596 | 30.79708 | 200 ft | 24 kts | 186° |
| 2026-05-04 19:36 | 36.90441 | 30.79702 | 202 ft | 22 kts | 159° |
| 2026-05-04 19:36 | 36.90391 | 30.79864 | 191 ft | 21 kts | 95° |
| 2026-05-04 19:36 | 36.90374 | 30.80060 | 191 ft | 18 kts | 96° |
| 2026-05-04 19:37 | 36.90358 | 30.80227 | 191 ft | 20 kts | 96° |
| 2026-05-04 19:37 | 36.90343 | 30.80403 | 191 ft | 20 kts | 96° |
| 2026-05-04 19:37 | 36.90327 | 30.80573 | 196 ft | 19 kts | 96° |
| 2026-05-04 19:37 | 36.90299 | 30.80721 | 204 ft | 18 kts | 140° |
| 2026-05-04 19:38 | 36.90179 | 30.80785 | 201 ft | 20 kts | 173° |
| 2026-05-04 19:38 | 36.90042 | 30.80757 | 204 ft | 20 kts | 186° |
| 2026-05-04 19:38 | 36.89895 | 30.80737 | 195 ft | 22 kts | 186° |
| 2026-05-04 19:38 | 36.89737 | 30.80716 | 191 ft | 23 kts | 186° |
| 2026-05-04 19:39 | 36.89574 | 30.80693 | 190 ft | 24 kts | 186° |
| 2026-05-04 19:39 | 36.89409 | 30.80670 | 199 ft | 23 kts | 186° |
| 2026-05-04 19:39 | 36.89252 | 30.80648 | 193 ft | 22 kts | 186° |
| 2026-05-04 19:39 | 36.89100 | 30.80627 | 191 ft | 22 kts | 186° |
| 2026-05-04 19:40 | 36.88952 | 30.80606 | 204 ft | 21 kts | 186° |
| 2026-05-04 19:40 | 36.88806 | 30.80587 | 204 ft | 21 kts | 186° |
| 2026-05-04 19:40 | 36.88657 | 30.80566 | 194 ft | 23 kts | 186° |
| 2026-05-04 19:40 | 36.88479 | 30.80541 | 205 ft | 28 kts | 186° |
| 2026-05-04 19:41 | 36.88291 | 30.80516 | 191 ft | 28 kts | 186° |
| 2026-05-04 19:41 | 36.88161 | 30.80514 | 204 ft | 17 kts | 143° |
| 2026-05-04 19:41 | 36.88130 | 30.80654 | 189 ft | 17 kts | 96° |
| 2026-05-04 19:41 | 36.88141 | 30.80743 | 199 ft | 6 kts | 36° |
| 2026-05-04 19:42 | 36.88183 | 30.80740 | 203 ft | 6 kts | 352° |
| 2026-05-04 19:42 | 36.88199 | 30.80741 | 194 ft | 0 kts | 5° |
| 2026-05-04 19:42 | 36.88202 | 30.80741 | 194 ft | 4 kts | 5° |
| 2026-05-04 19:42 | 36.88507 | 30.80782 | 204 ft | 86 kts | 7° |
| 2026-05-04 19:43 | 36.89341 | 30.80895 | 203 ft | 155 kts | 2° |
| 2026-05-04 19:43 | 36.90572 | 30.81058 | 652 ft | 188 kts | 2° |
| 2026-05-04 19:43 | 36.91891 | 30.81221 | 1651 ft | 183 kts | 3° |
| 2026-05-04 19:43 | 36.93054 | 30.81458 | 2982 ft | 159 kts | 6° |
| 2026-05-04 19:44 | 36.94167 | 30.81705 | 3683 ft | 172 kts | 3° |
| 2026-05-04 19:44 | 36.95445 | 30.81585 | 3950 ft | 195 kts | 351° |
| 2026-05-04 19:44 | 36.96819 | 30.81340 | 4459 ft | 205 kts | 352° |
| 2026-05-04 19:44 | 36.98330 | 30.81085 | 4682 ft | 233 kts | 352° |
| 2026-05-04 19:45 | 36.99989 | 30.80818 | 5277 ft | 244 kts | 355° |
| 2026-05-04 19:45 | 37.01704 | 30.80859 | 6100 ft | 249 kts | 4° |
| 2026-05-04 19:45 | 37.03433 | 30.81101 | 6923 ft | 253 kts | 6° |
| 2026-05-04 19:45 | 37.05198 | 30.81384 | 7675 ft | 258 kts | 6° |
| 2026-05-04 19:46 | 37.06993 | 30.81672 | 8460 ft | 263 kts | 6° |
| 2026-05-04 19:46 | 37.08828 | 30.81959 | 9220 ft | 269 kts | 6° |
| 2026-05-04 19:46 | 37.10700 | 30.82244 | 9980 ft | 273 kts | 5° |
| 2026-05-04 19:46 | 37.12614 | 30.82529 | 10578 ft | 284 kts | 5° |
| 2026-05-04 19:47 | 37.14663 | 30.82827 | 10770 ft | 308 kts | 5° |
| 2026-05-04 19:47 | 37.16863 | 30.83143 | 11070 ft | 327 kts | 5° |
| 2026-05-04 19:47 | 37.19139 | 30.83468 | 11664 ft | 335 kts | 5° |
| 2026-05-04 19:47 | 37.21479 | 30.83802 | 12398 ft | 339 kts | 5° |
| 2026-05-04 19:48 | 37.23842 | 30.84137 | 13069 ft | 345 kts | 5° |
| 2026-05-04 19:48 | 37.26242 | 30.84477 | 13772 ft | 350 kts | 5° |
| 2026-05-04 19:48 | 37.28666 | 30.84819 | 14492 ft | 350 kts | 5° |
| 2026-05-04 19:48 | 37.31084 | 30.85161 | 15206 ft | 350 kts | 5° |
| 2026-05-04 19:49 | 37.33519 | 30.85505 | 15883 ft | 353 kts | 5° |
| 2026-05-04 19:49 | 37.35965 | 30.85850 | 16625 ft | 354 kts | 5° |
| 2026-05-04 19:49 | 37.38408 | 30.86194 | 17367 ft | 354 kts | 4° |
| 2026-05-04 19:49 | 37.40869 | 30.86541 | 18054 ft | 356 kts | 4° |
| 2026-05-04 19:50 | 37.43332 | 30.86888 | 18663 ft | 358 kts | 4° |
| 2026-05-04 19:50 | 37.45819 | 30.87239 | 19203 ft | 361 kts | 4° |
| 2026-05-04 19:50 | 37.48326 | 30.87592 | 19695 ft | 365 kts | 4° |
| 2026-05-04 19:50 | 37.50859 | 30.87950 | 20266 ft | 368 kts | 4° |
| 2026-05-04 19:51 | 37.53408 | 30.88311 | 20823 ft | 370 kts | 4° |
| 2026-05-04 19:51 | 37.55974 | 30.88674 | 21341 ft | 373 kts | 3° |
| 2026-05-04 19:51 | 37.58562 | 30.89040 | 21825 ft | 376 kts | 3° |
| 2026-05-04 19:51 | 37.60322 | 30.89289 | 22148 ft | 378 kts | 3° |
| 2026-05-04 19:52 | 37.62950 | 30.89661 | 22651 ft | 381 kts | 3° |
| 2026-05-04 19:52 | 37.65595 | 30.90036 | 23134 ft | 384 kts | 3° |
| 2026-05-04 19:52 | 37.68257 | 30.90415 | 23608 ft | 387 kts | 3° |
| 2026-05-04 19:52 | 37.70979 | 30.90802 | 24007 ft | 389 kts | 3° |
| 2026-05-04 19:53 | 37.73680 | 30.91186 | 24423 ft | 391 kts | 3° |
| 2026-05-04 19:53 | 37.76393 | 30.91572 | 24807 ft | 393 kts | 3° |
| 2026-05-04 19:53 | 37.79118 | 30.91961 | 25204 ft | 395 kts | 3° |
| 2026-05-04 19:53 | 37.81863 | 30.92352 | 25578 ft | 398 kts | 4° |
| 2026-05-04 19:54 | 37.84616 | 30.92745 | 25968 ft | 399 kts | 4° |
| 2026-05-04 19:54 | 37.87381 | 30.93140 | 26363 ft | 401 kts | 4° |
| 2026-05-04 19:54 | 37.90157 | 30.93537 | 26729 ft | 403 kts | 4° |
| 2026-05-04 19:54 | 37.92946 | 30.93936 | 27089 ft | 405 kts | 4° |
| 2026-05-04 19:55 | 37.95748 | 30.94337 | 27449 ft | 406 kts | 4° |
| 2026-05-04 19:55 | 37.98565 | 30.94740 | 27799 ft | 408 kts | 5° |
| 2026-05-04 19:55 | 38.01394 | 30.95145 | 28143 ft | 409 kts | 5° |
| 2026-05-04 19:55 | 38.04231 | 30.95553 | 28477 ft | 411 kts | 5° |
| 2026-05-04 19:56 | 38.07080 | 30.95961 | 28794 ft | 413 kts | 5° |
| 2026-05-04 19:56 | 38.09942 | 30.96373 | 29117 ft | 414 kts | 5° |
| 2026-05-04 19:56 | 38.12805 | 30.96784 | 29481 ft | 415 kts | 5° |
| 2026-05-04 19:56 | 38.15665 | 30.97196 | 29982 ft | 412 kts | 6° |
| 2026-05-04 19:57 | 38.18502 | 30.97605 | 30391 ft | 410 kts | 5° |
| 2026-05-04 19:57 | 38.21346 | 30.98014 | 30588 ft | 413 kts | 5° |
| 2026-05-04 19:57 | 38.24210 | 30.98427 | 30775 ft | 416 kts | 5° |
| 2026-05-04 19:57 | 38.27082 | 30.98841 | 31080 ft | 415 kts | 5° |
| 2026-05-04 19:58 | 38.29956 | 30.99256 | 31371 ft | 416 kts | 5° |
| 2026-05-04 19:58 | 38.32836 | 30.99673 | 31625 ft | 417 kts | 5° |
| 2026-05-04 19:58 | 38.35726 | 31.00091 | 31854 ft | 419 kts | 5° |
| 2026-05-04 19:58 | 38.38622 | 31.00510 | 32113 ft | 419 kts | 5° |
| 2026-05-04 19:59 | 38.41523 | 31.00931 | 32379 ft | 420 kts | 5° |
| 2026-05-04 19:59 | 38.44430 | 31.01329 | 32655 ft | 419 kts | 2° |
| 2026-05-04 19:59 | 38.47339 | 31.01271 | 32959 ft | 418 kts | 354° |
| 2026-05-04 19:59 | 38.50212 | 31.00743 | 33274 ft | 417 kts | 348° |
| 2026-05-04 20:00 | 38.52998 | 30.99721 | 33478 ft | 419 kts | 340° |
| 2026-05-04 20:00 | 38.55734 | 30.98423 | 33702 ft | 420 kts | 339° |
| 2026-05-04 20:00 | 38.58466 | 30.97084 | 33965 ft | 421 kts | 339° |
| 2026-05-04 20:01 | 38.63962 | 30.94377 | 34023 ft | 424 kts | 339° |
| 2026-05-04 20:01 | 38.69445 | 30.91708 | 34026 ft | 420 kts | 340° |
| 2026-05-04 20:02 | 38.74894 | 30.89074 | 34029 ft | 417 kts | 340° |
| 2026-05-04 20:02 | 38.80322 | 30.86454 | 34034 ft | 416 kts | 340° |
| 2026-05-04 20:03 | 38.85739 | 30.83835 | 34034 ft | 416 kts | 340° |
| 2026-05-04 20:03 | 38.91152 | 30.81213 | 34039 ft | 416 kts | 340° |
| 2026-05-04 20:04 | 38.96569 | 30.78585 | 34041 ft | 416 kts | 340° |
| 2026-05-04 20:04 | 39.01997 | 30.75947 | 34040 ft | 418 kts | 340° |
| 2026-05-04 20:05 | 39.07442 | 30.73296 | 34034 ft | 419 kts | 341° |
| 2026-05-04 20:05 | 39.12902 | 30.70633 | 34042 ft | 420 kts | 341° |
| 2026-05-04 20:06 | 39.18372 | 30.67961 | 34059 ft | 420 kts | 341° |
| 2026-05-04 20:06 | 39.23844 | 30.65284 | 34045 ft | 421 kts | 341° |
| 2026-05-04 20:07 | 39.29314 | 30.62603 | 34047 ft | 421 kts | 341° |
| 2026-05-04 20:07 | 39.34784 | 30.59917 | 34050 ft | 420 kts | 341° |
| 2026-05-04 20:08 | 39.40249 | 30.57230 | 34054 ft | 420 kts | 341° |
| 2026-05-04 20:08 | 39.45750 | 30.54519 | 34038 ft | 420 kts | 341° |
| 2026-05-04 20:09 | 39.51161 | 30.51850 | 34035 ft | 419 kts | 341° |
| 2026-05-04 20:09 | 39.56582 | 30.49094 | 34028 ft | 418 kts | 339° |
| 2026-05-04 20:10 | 39.61932 | 30.46000 | 34007 ft | 418 kts | 338° |
| 2026-05-04 20:10 | 39.67211 | 30.42867 | 34008 ft | 417 kts | 338° |
| 2026-05-04 20:11 | 39.72519 | 30.39741 | 34009 ft | 423 kts | 339° |
| 2026-05-04 20:11 | 39.77934 | 30.36571 | 34014 ft | 431 kts | 339° |
| 2026-05-04 20:12 | 39.83432 | 30.33353 | 34002 ft | 433 kts | 339° |
| 2026-05-04 20:12 | 39.88928 | 30.30129 | 34009 ft | 433 kts | 339° |
| 2026-05-04 20:13 | 39.94408 | 30.26909 | 34024 ft | 432 kts | 339° |
| 2026-05-04 20:13 | 39.99883 | 30.23688 | 34037 ft | 431 kts | 339° |
| 2026-05-04 20:14 | 40.05351 | 30.20465 | 34061 ft | 431 kts | 339° |
| 2026-05-04 20:14 | 40.10805 | 30.17244 | 34054 ft | 430 kts | 339° |
| 2026-05-04 20:15 | 40.16238 | 30.14031 | 34053 ft | 428 kts | 340° |
| 2026-05-04 20:15 | 40.21664 | 30.10815 | 34053 ft | 427 kts | 340° |
| 2026-05-04 20:16 | 40.27068 | 30.07608 | 34051 ft | 426 kts | 340° |
| 2026-05-04 20:16 | 40.32461 | 30.04401 | 34051 ft | 425 kts | 340° |
| 2026-05-04 20:17 | 40.37840 | 30.01197 | 34047 ft | 425 kts | 340° |
| 2026-05-04 20:17 | 40.43213 | 29.97991 | 34043 ft | 424 kts | 340° |
| 2026-05-04 20:18 | 40.48587 | 29.94779 | 34042 ft | 424 kts | 340° |
| 2026-05-04 20:18 | 40.53998 | 29.91539 | 34051 ft | 424 kts | 340° |
| 2026-05-04 20:19 | 40.59413 | 29.88291 | 34052 ft | 426 kts | 340° |
| 2026-05-04 20:19 | 40.64847 | 29.85026 | 34042 ft | 427 kts | 340° |
| 2026-05-04 20:20 | 40.69330 | 29.82327 | 34045 ft | 428 kts | 340° |
| 2026-05-04 20:20 | 40.74746 | 29.79061 | 34041 ft | 428 kts | 340° |
| 2026-05-04 20:21 | 40.80167 | 29.75786 | 34043 ft | 428 kts | 340° |
| 2026-05-04 20:21 | 40.87407 | 29.71403 | 34042 ft | 428 kts | 340° |
| 2026-05-04 20:22 | 40.92826 | 29.68115 | 34040 ft | 428 kts | 340° |
| 2026-05-04 20:22 | 40.98338 | 29.64766 | 34038 ft | 427 kts | 340° |
| 2026-05-04 20:23 | 41.03732 | 29.61482 | 34034 ft | 427 kts | 340° |
| 2026-05-04 20:23 | 41.09207 | 29.58142 | 34030 ft | 427 kts | 340° |
| 2026-05-04 20:24 | 41.14604 | 29.54844 | 34030 ft | 427 kts | 340° |
| 2026-05-04 20:24 | 41.20007 | 29.51591 | 34025 ft | 425 kts | 343° |
| 2026-05-04 20:25 | 41.25649 | 29.49294 | 34022 ft | 421 kts | 349° |
| 2026-05-04 20:25 | 41.31293 | 29.47231 | 34021 ft | 420 kts | 349° |
| 2026-05-04 20:26 | 41.36936 | 29.45137 | 34020 ft | 421 kts | 348° |
| 2026-05-04 20:26 | 41.42573 | 29.43007 | 34023 ft | 421 kts | 348° |
| 2026-05-04 20:27 | 41.48218 | 29.40858 | 34020 ft | 422 kts | 348° |
| 2026-05-04 20:27 | 41.53867 | 29.38702 | 34024 ft | 423 kts | 348° |
| 2026-05-04 20:28 | 41.59525 | 29.36538 | 34021 ft | 423 kts | 348° |
| 2026-05-04 20:28 | 41.65194 | 29.34367 | 34021 ft | 424 kts | 348° |
| 2026-05-04 20:29 | 41.70864 | 29.32192 | 34020 ft | 425 kts | 348° |
| 2026-05-04 20:29 | 41.76553 | 29.30005 | 34020 ft | 425 kts | 348° |
| 2026-05-04 20:30 | 41.82240 | 29.27815 | 34026 ft | 426 kts | 348° |
| 2026-05-04 20:30 | 41.87930 | 29.25620 | 34026 ft | 426 kts | 348° |
| 2026-05-04 20:31 | 41.93633 | 29.23415 | 34026 ft | 426 kts | 348° |
| 2026-05-04 20:31 | 41.99332 | 29.21208 | 34028 ft | 426 kts | 348° |
| 2026-05-04 20:32 | 42.05038 | 29.18994 | 34022 ft | 427 kts | 348° |
| 2026-05-04 20:32 | 42.10775 | 29.16765 | 34027 ft | 427 kts | 347° |
| 2026-05-04 20:33 | 42.16396 | 29.14098 | 34026 ft | 433 kts | 337° |
| 2026-05-04 20:33 | 42.21410 | 29.09493 | 34042 ft | 441 kts | 324° |
| 2026-05-04 20:34 | 42.26042 | 29.04044 | 34030 ft | 442 kts | 323° |
| 2026-05-04 20:34 | 42.30700 | 28.98515 | 34028 ft | 443 kts | 323° |
| 2026-05-04 20:35 | 42.35344 | 28.93046 | 34032 ft | 443 kts | 323° |
| 2026-05-04 20:35 | 42.40011 | 28.87572 | 34034 ft | 444 kts | 323° |
| 2026-05-04 20:36 | 42.44682 | 28.82092 | 34034 ft | 445 kts | 323° |
| 2026-05-04 20:36 | 42.49356 | 28.76597 | 34040 ft | 445 kts | 323° |
| 2026-05-04 20:37 | 42.54037 | 28.71082 | 34047 ft | 446 kts | 323° |
| 2026-05-04 20:37 | 42.58722 | 28.65550 | 34042 ft | 447 kts | 323° |
| 2026-05-04 20:38 | 42.63408 | 28.60003 | 34044 ft | 447 kts | 322° |
| 2026-05-04 20:38 | 42.68129 | 28.54405 | 34050 ft | 448 kts | 322° |
| 2026-05-04 20:39 | 42.72819 | 28.48832 | 34049 ft | 448 kts | 322° |
| 2026-05-04 20:39 | 42.77482 | 28.43279 | 34053 ft | 448 kts | 322° |
| 2026-05-04 20:40 | 42.82171 | 28.37684 | 34051 ft | 449 kts | 322° |
| 2026-05-04 20:40 | 42.86868 | 28.32066 | 34057 ft | 449 kts | 322° |
| 2026-05-04 20:41 | 42.91561 | 28.26443 | 34062 ft | 449 kts | 322° |
| 2026-05-04 20:41 | 42.95123 | 28.22165 | 34060 ft | 450 kts | 321° |
| 2026-05-04 20:42 | 42.99733 | 28.16621 | 34059 ft | 450 kts | 321° |
| 2026-05-04 20:42 | 43.04436 | 28.10952 | 34065 ft | 450 kts | 321° |
| 2026-05-04 20:43 | 43.09113 | 28.05303 | 34069 ft | 450 kts | 321° |
| 2026-05-04 20:43 | 43.13799 | 27.99630 | 34073 ft | 449 kts | 321° |
| 2026-05-04 20:44 | 43.18509 | 27.93918 | 34075 ft | 449 kts | 321° |
| 2026-05-04 20:44 | 43.23176 | 27.88244 | 34074 ft | 449 kts | 320° |
| 2026-05-04 20:45 | 43.27847 | 27.82554 | 34076 ft | 448 kts | 320° |
| 2026-05-04 20:45 | 43.32536 | 27.76829 | 34071 ft | 448 kts | 320° |
| 2026-05-04 20:46 | 43.36404 | 27.72098 | 34073 ft | 447 kts | 320° |
| 2026-05-04 20:46 | 43.41076 | 27.66371 | 34069 ft | 447 kts | 320° |
| 2026-05-04 20:47 | 43.45710 | 27.60679 | 34065 ft | 446 kts | 320° |
| 2026-05-04 20:47 | 43.50330 | 27.54992 | 34069 ft | 445 kts | 319° |
| 2026-05-04 20:48 | 43.54940 | 27.49305 | 34087 ft | 444 kts | 319° |
| 2026-05-04 20:48 | 43.59541 | 27.43618 | 34069 ft | 444 kts | 319° |
| 2026-05-04 20:49 | 43.64136 | 27.37926 | 34065 ft | 444 kts | 319° |
| 2026-05-04 20:49 | 43.68722 | 27.32232 | 34065 ft | 443 kts | 319° |
| 2026-05-04 20:50 | 43.73344 | 27.26481 | 34061 ft | 443 kts | 319° |
| 2026-05-04 20:50 | 43.77882 | 27.20822 | 34054 ft | 443 kts | 319° |
| 2026-05-04 20:51 | 43.82458 | 27.15104 | 34056 ft | 443 kts | 319° |
| 2026-05-04 20:51 | 43.87039 | 27.09368 | 34053 ft | 444 kts | 319° |
| 2026-05-04 20:52 | 43.91620 | 27.03618 | 34049 ft | 444 kts | 319° |
| 2026-05-04 20:52 | 43.96205 | 26.97851 | 34044 ft | 445 kts | 319° |
| 2026-05-04 20:53 | 44.00791 | 26.92069 | 34047 ft | 446 kts | 319° |
| 2026-05-04 20:53 | 44.05386 | 26.86265 | 34043 ft | 446 kts | 318° |
| 2026-05-04 20:54 | 44.10041 | 26.80550 | 34050 ft | 446 kts | 321° |
| 2026-05-04 20:54 | 44.14930 | 26.75228 | 34038 ft | 447 kts | 323° |
| 2026-05-04 20:55 | 44.19873 | 26.69974 | 34040 ft | 447 kts | 323° |
| 2026-05-04 20:55 | 44.24798 | 26.64677 | 34039 ft | 447 kts | 322° |
| 2026-05-04 20:56 | 44.29705 | 26.59343 | 34035 ft | 447 kts | 322° |
| 2026-05-04 20:56 | 44.34607 | 26.53984 | 34041 ft | 448 kts | 322° |
| 2026-05-04 20:57 | 44.39538 | 26.48580 | 34036 ft | 448 kts | 322° |
| 2026-05-04 20:57 | 44.44445 | 26.43191 | 34040 ft | 448 kts | 321° |
| 2026-05-04 20:58 | 44.49350 | 26.37792 | 34038 ft | 449 kts | 321° |
| 2026-05-04 20:58 | 44.54253 | 26.32385 | 34044 ft | 449 kts | 321° |
| 2026-05-04 20:59 | 44.59154 | 26.26969 | 34044 ft | 449 kts | 321° |
| 2026-05-04 20:59 | 44.64102 | 26.21489 | 34048 ft | 449 kts | 321° |
| 2026-05-04 21:00 | 44.69006 | 26.16044 | 34046 ft | 450 kts | 321° |
| 2026-05-04 21:00 | 44.73913 | 26.10585 | 34052 ft | 450 kts | 321° |
| 2026-05-04 21:01 | 44.78816 | 26.05118 | 34050 ft | 450 kts | 321° |
| 2026-05-04 21:01 | 44.83718 | 25.99640 | 34055 ft | 450 kts | 321° |
| 2026-05-04 21:02 | 44.88617 | 25.94152 | 34060 ft | 450 kts | 321° |
| 2026-05-04 21:02 | 44.93513 | 25.88657 | 34061 ft | 450 kts | 321° |
| 2026-05-04 21:03 | 44.98414 | 25.83142 | 34070 ft | 450 kts | 321° |
| 2026-05-04 21:03 | 45.03307 | 25.77624 | 34083 ft | 450 kts | 321° |
| 2026-05-04 21:04 | 45.08189 | 25.72106 | 34085 ft | 449 kts | 321° |
| 2026-05-04 21:04 | 45.13072 | 25.66575 | 34092 ft | 449 kts | 321° |
| 2026-05-04 21:05 | 45.17939 | 25.61050 | 34093 ft | 448 kts | 321° |
| 2026-05-04 21:05 | 45.22835 | 25.55478 | 34094 ft | 448 kts | 321° |
| 2026-05-04 21:06 | 45.27657 | 25.49980 | 34106 ft | 447 kts | 322° |
| 2026-05-04 21:06 | 45.32536 | 25.44402 | 34094 ft | 447 kts | 322° |
| 2026-05-04 21:07 | 45.37377 | 25.38856 | 34091 ft | 447 kts | 322° |
| 2026-05-04 21:07 | 45.42202 | 25.33316 | 34105 ft | 446 kts | 322° |
| 2026-05-04 21:08 | 45.47063 | 25.27721 | 34089 ft | 446 kts | 322° |
| 2026-05-04 21:08 | 45.51879 | 25.22166 | 34087 ft | 445 kts | 322° |
| 2026-05-04 21:09 | 45.56720 | 25.16570 | 34291 ft | 444 kts | 322° |
| 2026-05-04 21:09 | 45.59105 | 25.13807 | 34723 ft | 439 kts | 322° |
| 2026-05-04 21:09 | 45.61467 | 25.11067 | 35148 ft | 434 kts | 322° |
| 2026-05-04 21:10 | 45.63844 | 25.08308 | 35345 ft | 436 kts | 322° |
| 2026-05-04 21:10 | 45.66205 | 25.05565 | 35413 ft | 440 kts | 322° |
| 2026-05-04 21:10 | 45.70951 | 25.00044 | 35670 ft | 445 kts | 322° |
| 2026-05-04 21:11 | 45.73390 | 24.97200 | 35907 ft | 444 kts | 322° |
| 2026-05-04 21:11 | 45.75779 | 24.94411 | 36098 ft | 444 kts | 322° |
| 2026-05-04 21:11 | 45.80582 | 24.88795 | 36085 ft | 446 kts | 322° |
| 2026-05-04 21:12 | 45.85362 | 24.83192 | 36078 ft | 442 kts | 322° |
| 2026-05-04 21:12 | 45.90113 | 24.77611 | 36082 ft | 440 kts | 322° |
| 2026-05-04 21:13 | 45.94836 | 24.72050 | 36082 ft | 439 kts | 322° |
| 2026-05-04 21:13 | 45.98788 | 24.67388 | 36084 ft | 438 kts | 322° |
| 2026-05-04 21:14 | 46.03498 | 24.61820 | 36081 ft | 439 kts | 322° |
| 2026-05-04 21:14 | 46.08221 | 24.56223 | 36082 ft | 440 kts | 322° |
| 2026-05-04 21:15 | 46.12951 | 24.50605 | 36079 ft | 441 kts | 322° |
| 2026-05-04 21:15 | 46.17775 | 24.44863 | 36078 ft | 443 kts | 322° |
| 2026-05-04 21:16 | 46.22480 | 24.39249 | 36076 ft | 444 kts | 322° |
| 2026-05-04 21:16 | 46.27240 | 24.33556 | 36073 ft | 444 kts | 322° |
| 2026-05-04 21:17 | 46.32058 | 24.27779 | 36076 ft | 444 kts | 322° |
| 2026-05-04 21:17 | 46.36783 | 24.22101 | 36077 ft | 444 kts | 322° |
| 2026-05-04 21:18 | 46.41450 | 24.16232 | 36073 ft | 444 kts | 320° |
| 2026-05-04 21:18 | 46.46045 | 24.10249 | 36079 ft | 444 kts | 320° |
| 2026-05-04 21:19 | 46.50635 | 24.04273 | 36079 ft | 443 kts | 320° |
| 2026-05-04 21:19 | 46.55232 | 23.98307 | 36086 ft | 443 kts | 320° |
| 2026-05-04 21:20 | 46.59828 | 23.92344 | 36092 ft | 443 kts | 320° |
| 2026-05-04 21:20 | 46.64423 | 23.86372 | 36095 ft | 443 kts | 320° |
| 2026-05-04 21:21 | 46.69033 | 23.80365 | 36105 ft | 443 kts | 320° |
| 2026-05-04 21:21 | 46.73617 | 23.74378 | 36101 ft | 443 kts | 320° |
| 2026-05-04 21:22 | 46.78213 | 23.68361 | 36116 ft | 443 kts | 320° |
| 2026-05-04 21:22 | 46.82793 | 23.62349 | 36104 ft | 443 kts | 320° |
| 2026-05-04 21:23 | 46.87370 | 23.56327 | 36099 ft | 443 kts | 320° |
| 2026-05-04 21:23 | 46.91943 | 23.50297 | 36097 ft | 443 kts | 320° |
| 2026-05-04 21:24 | 46.96541 | 23.44218 | 36111 ft | 443 kts | 319° |
| 2026-05-04 21:24 | 47.01110 | 23.38164 | 36098 ft | 442 kts | 319° |
| 2026-05-04 21:25 | 47.05670 | 23.32106 | 36099 ft | 442 kts | 319° |
| 2026-05-04 21:25 | 47.10224 | 23.26042 | 36095 ft | 442 kts | 319° |
| 2026-05-04 21:26 | 47.14808 | 23.19923 | 36095 ft | 442 kts | 319° |
| 2026-05-04 21:26 | 47.19353 | 23.13842 | 36096 ft | 442 kts | 319° |
| 2026-05-04 21:27 | 47.23895 | 23.07750 | 36099 ft | 442 kts | 319° |
| 2026-05-04 21:27 | 47.28427 | 23.01656 | 36090 ft | 442 kts | 319° |
| 2026-05-04 21:28 | 47.32961 | 22.95545 | 36098 ft | 441 kts | 319° |
| 2026-05-04 21:28 | 47.37485 | 22.89433 | 36086 ft | 441 kts | 319° |
| 2026-05-04 21:29 | 47.42004 | 22.83312 | 36086 ft | 441 kts | 319° |
| 2026-05-04 21:29 | 47.46521 | 22.77179 | 36075 ft | 441 kts | 319° |
| 2026-05-04 21:30 | 47.51032 | 22.71040 | 36081 ft | 441 kts | 319° |
| 2026-05-04 21:30 | 47.55539 | 22.64891 | 36073 ft | 440 kts | 319° |
| 2026-05-04 21:31 | 47.60300 | 22.59251 | 36074 ft | 437 kts | 330° |
| 2026-05-04 21:31 | 47.62914 | 22.56956 | 36076 ft | 437 kts | 331° |
| 2026-05-04 21:32 | 47.68170 | 22.52441 | 36076 ft | 437 kts | 331° |
| 2026-05-04 21:32 | 47.73423 | 22.47884 | 36069 ft | 437 kts | 330° |
| 2026-05-04 21:33 | 47.78655 | 22.43281 | 36066 ft | 437 kts | 330° |
| 2026-05-04 21:33 | 47.83881 | 22.38649 | 36065 ft | 437 kts | 330° |
| 2026-05-04 21:34 | 47.89107 | 22.34001 | 36064 ft | 438 kts | 330° |
| 2026-05-04 21:34 | 47.94336 | 22.29342 | 36065 ft | 438 kts | 330° |
| 2026-05-04 21:35 | 47.99562 | 22.24673 | 36063 ft | 438 kts | 330° |
| 2026-05-04 21:35 | 48.04791 | 22.19993 | 36060 ft | 438 kts | 330° |
| 2026-05-04 21:36 | 48.10029 | 22.15293 | 36062 ft | 439 kts | 329° |
| 2026-05-04 21:36 | 48.15265 | 22.10583 | 36062 ft | 439 kts | 329° |
| 2026-05-04 21:37 | 48.20511 | 22.05853 | 36058 ft | 440 kts | 329° |
| 2026-05-04 21:37 | 48.25755 | 22.01113 | 36057 ft | 441 kts | 329° |
| 2026-05-04 21:38 | 48.31008 | 21.96354 | 36057 ft | 441 kts | 329° |
| 2026-05-04 21:38 | 48.36262 | 21.91582 | 36052 ft | 442 kts | 329° |
| 2026-05-04 21:39 | 48.41522 | 21.86793 | 36051 ft | 442 kts | 329° |
| 2026-05-04 21:39 | 48.46785 | 21.81989 | 36049 ft | 442 kts | 329° |
| 2026-05-04 21:40 | 48.52033 | 21.77187 | 36052 ft | 443 kts | 329° |
| 2026-05-04 21:40 | 48.57315 | 21.72343 | 36049 ft | 443 kts | 329° |
| 2026-05-04 21:41 | 48.62582 | 21.67500 | 36051 ft | 443 kts | 328° |
| 2026-05-04 21:41 | 48.67857 | 21.62638 | 36049 ft | 443 kts | 328° |
| 2026-05-04 21:42 | 48.73018 | 21.57869 | 36034 ft | 427 kts | 328° |
| 2026-05-04 21:42 | 48.78073 | 21.53186 | 36050 ft | 425 kts | 328° |
| 2026-05-04 21:43 | 48.83117 | 21.48503 | 36054 ft | 425 kts | 328° |
| 2026-05-04 21:43 | 48.88174 | 21.43797 | 35739 ft | 436 kts | 328° |
| 2026-05-04 21:43 | 48.89942 | 21.42148 | 35388 ft | 442 kts | 328° |
| 2026-05-04 21:44 | 48.92599 | 21.39669 | 34814 ft | 443 kts | 328° |
| 2026-05-04 21:44 | 48.95213 | 21.37226 | 34409 ft | 440 kts | 328° |
| 2026-05-04 21:44 | 48.97810 | 21.34797 | 33962 ft | 441 kts | 328° |
| 2026-05-04 21:44 | 49.00438 | 21.32335 | 33456 ft | 440 kts | 328° |
| 2026-05-04 21:45 | 49.03035 | 21.29900 | 32976 ft | 437 kts | 328° |
| 2026-05-04 21:45 | 49.05613 | 21.27479 | 32545 ft | 433 kts | 328° |
| 2026-05-04 21:45 | 49.08169 | 21.25076 | 32090 ft | 431 kts | 328° |
| 2026-05-04 21:45 | 49.10750 | 21.22646 | 31647 ft | 431 kts | 328° |
| 2026-05-04 21:46 | 49.13347 | 21.20198 | 31224 ft | 446 kts | 328° |
| 2026-05-04 21:46 | 49.15968 | 21.17724 | 30772 ft | 452 kts | 328° |
| 2026-05-04 21:46 | 49.18646 | 21.15193 | 30303 ft | 450 kts | 328° |
| 2026-05-04 21:46 | 49.21296 | 21.12686 | 29790 ft | 448 kts | 328° |
| 2026-05-04 21:47 | 49.23955 | 21.10167 | 29280 ft | 450 kts | 328° |
| 2026-05-04 21:47 | 49.26619 | 21.07640 | 28793 ft | 450 kts | 328° |
| 2026-05-04 21:47 | 49.29263 | 21.05130 | 28305 ft | 446 kts | 328° |
| 2026-05-04 21:47 | 49.31892 | 21.02631 | 27836 ft | 442 kts | 327° |
| 2026-05-04 21:48 | 49.34424 | 20.99990 | 27311 ft | 440 kts | 320° |
| 2026-05-04 21:48 | 49.36718 | 20.96884 | 26727 ft | 439 kts | 317° |
| 2026-05-04 21:48 | 49.38960 | 20.93737 | 26247 ft | 436 kts | 316° |
| 2026-05-04 21:48 | 49.41184 | 20.90599 | 25770 ft | 432 kts | 316° |
| 2026-05-04 21:49 | 49.43386 | 20.87498 | 25308 ft | 429 kts | 316° |
| 2026-05-04 21:49 | 49.45579 | 20.84420 | 24855 ft | 425 kts | 316° |
| 2026-05-04 21:49 | 49.47798 | 20.81314 | 24398 ft | 422 kts | 316° |
| 2026-05-04 21:49 | 49.49953 | 20.78302 | 23957 ft | 419 kts | 316° |
| 2026-05-04 21:50 | 49.52106 | 20.75293 | 23482 ft | 417 kts | 316° |
| 2026-05-04 21:50 | 49.54247 | 20.72299 | 22963 ft | 414 kts | 316° |
| 2026-05-04 21:50 | 49.56340 | 20.69372 | 22488 ft | 411 kts | 316° |
| 2026-05-04 21:50 | 49.58444 | 20.66423 | 22064 ft | 407 kts | 316° |
| 2026-05-04 21:51 | 49.60530 | 20.63498 | 21613 ft | 404 kts | 316° |
| 2026-05-04 21:51 | 49.62605 | 20.60584 | 21176 ft | 402 kts | 316° |
| 2026-05-04 21:51 | 49.64664 | 20.57689 | 20747 ft | 400 kts | 316° |
| 2026-05-04 21:51 | 49.66714 | 20.54802 | 20317 ft | 398 kts | 316° |
| 2026-05-04 21:52 | 49.68757 | 20.51923 | 19891 ft | 397 kts | 316° |
| 2026-05-04 21:52 | 49.70790 | 20.49053 | 19462 ft | 395 kts | 316° |
| 2026-05-04 21:52 | 49.72818 | 20.46188 | 19040 ft | 394 kts | 315° |
| 2026-05-04 21:52 | 49.74838 | 20.43330 | 18609 ft | 393 kts | 315° |
| 2026-05-04 21:53 | 49.76853 | 20.40475 | 18170 ft | 392 kts | 315° |
| 2026-05-04 21:53 | 49.78855 | 20.37637 | 17687 ft | 390 kts | 315° |
| 2026-05-04 21:53 | 49.80846 | 20.34811 | 17239 ft | 387 kts | 315° |
| 2026-05-04 21:53 | 49.82819 | 20.32008 | 16801 ft | 383 kts | 315° |
| 2026-05-04 21:54 | 49.84773 | 20.29228 | 16393 ft | 381 kts | 315° |
| 2026-05-04 21:54 | 49.86720 | 20.26454 | 15973 ft | 378 kts | 315° |
| 2026-05-04 21:54 | 49.88667 | 20.23678 | 15557 ft | 375 kts | 314° |
| 2026-05-04 21:54 | 49.90559 | 20.20977 | 15145 ft | 373 kts | 314° |
| 2026-05-04 21:55 | 49.92461 | 20.18257 | 14743 ft | 371 kts | 314° |
| 2026-05-04 21:55 | 49.94351 | 20.15552 | 14336 ft | 369 kts | 314° |
| 2026-05-04 21:55 | 49.96215 | 20.12883 | 13922 ft | 360 kts | 314° |
| 2026-05-04 21:55 | 49.98064 | 20.10233 | 13502 ft | 358 kts | 314° |
| 2026-05-04 21:56 | 49.99871 | 20.07636 | 13080 ft | 356 kts | 314° |
| 2026-05-04 21:56 | 50.01681 | 20.05036 | 12654 ft | 343 kts | 314° |
| 2026-05-04 21:56 | 50.03434 | 20.02519 | 12262 ft | 330 kts | 314° |
| 2026-05-04 21:56 | 50.05044 | 20.00203 | 11905 ft | 318 kts | 314° |
| 2026-05-04 21:57 | 50.06652 | 19.97887 | 11553 ft | 308 kts | 313° |
| 2026-05-04 21:57 | 50.08168 | 19.95700 | 11215 ft | 299 kts | 313° |
| 2026-05-04 21:57 | 50.09681 | 19.93513 | 10882 ft | 291 kts | 313° |
| 2026-05-04 21:57 | 50.11148 | 19.91392 | 10559 ft | 285 kts | 313° |
| 2026-05-04 21:58 | 50.12589 | 19.89304 | 10350 ft | 280 kts | 313° |
| 2026-05-04 21:58 | 50.13999 | 19.87261 | 10217 ft | 276 kts | 313° |
| 2026-05-04 21:58 | 50.15420 | 19.85196 | 10111 ft | 283 kts | 313° |
| 2026-05-04 21:58 | 50.16854 | 19.83114 | 9908 ft | 279 kts | 313° |
| 2026-05-04 21:59 | 50.18255 | 19.81081 | 9575 ft | 271 kts | 314° |
| 2026-05-04 21:59 | 50.19623 | 19.79096 | 9299 ft | 264 kts | 313° |
| 2026-05-04 21:59 | 50.20940 | 19.77181 | 9025 ft | 256 kts | 313° |
| 2026-05-04 21:59 | 50.22232 | 19.75301 | 8762 ft | 253 kts | 313° |
| 2026-05-04 22:00 | 50.23520 | 19.73424 | 8515 ft | 253 kts | 313° |
| 2026-05-04 22:00 | 50.24827 | 19.71514 | 8273 ft | 262 kts | 313° |
| 2026-05-04 22:00 | 50.26179 | 19.69536 | 7986 ft | 269 kts | 314° |
| 2026-05-04 22:00 | 50.27538 | 19.67553 | 7694 ft | 264 kts | 314° |
| 2026-05-04 22:01 | 50.28861 | 19.65622 | 7394 ft | 257 kts | 314° |
| 2026-05-04 22:01 | 50.30152 | 19.63737 | 7131 ft | 250 kts | 313° |
| 2026-05-04 22:01 | 50.31407 | 19.61903 | 6870 ft | 244 kts | 313° |
| 2026-05-04 22:01 | 50.32642 | 19.60094 | 6632 ft | 244 kts | 313° |
| 2026-05-04 22:02 | 50.33888 | 19.58264 | 6376 ft | 248 kts | 313° |
| 2026-05-04 22:02 | 50.35171 | 19.56379 | 6115 ft | 257 kts | 313° |
| 2026-05-04 22:02 | 50.36480 | 19.54456 | 5825 ft | 257 kts | 313° |
| 2026-05-04 22:02 | 50.37761 | 19.52577 | 5551 ft | 248 kts | 313° |
| 2026-05-04 22:03 | 50.39004 | 19.50753 | 5292 ft | 241 kts | 312° |
| 2026-05-04 22:03 | 50.40199 | 19.48999 | 5192 ft | 230 kts | 312° |
| 2026-05-04 22:04 | 50.43358 | 19.44356 | 4922 ft | 182 kts | 310° |
| 2026-05-04 22:04 | 50.44263 | 19.43019 | 4859 ft | 179 kts | 310° |
| 2026-05-04 22:04 | 50.45153 | 19.41701 | 4791 ft | 179 kts | 310° |
| 2026-05-04 22:04 | 50.46071 | 19.40342 | 4603 ft | 182 kts | 309° |
| 2026-05-04 22:05 | 50.46969 | 19.38946 | 4407 ft | 179 kts | 298° |
| 2026-05-04 22:05 | 50.47256 | 19.37240 | 4363 ft | 155 kts | 264° |
| 2026-05-04 22:05 | 50.47349 | 19.35511 | 4171 ft | 159 kts | 274° |
| 2026-05-04 22:05 | 50.47491 | 19.33795 | 3945 ft | 155 kts | 270° |
| 2026-05-04 22:06 | 50.47552 | 19.32124 | 3744 ft | 151 kts | 266° |
| 2026-05-04 22:06 | 50.47571 | 19.30488 | 3560 ft | 150 kts | 265° |
| 2026-05-04 22:06 | 50.47576 | 19.28843 | 3369 ft | 151 kts | 265° |
| 2026-05-04 22:06 | 50.47578 | 19.27202 | 3168 ft | 150 kts | 264° |
| 2026-05-04 22:07 | 50.47579 | 19.25555 | 2962 ft | 148 kts | 264° |
| 2026-05-04 22:07 | 50.47579 | 19.23951 | 2770 ft | 146 kts | 265° |
| 2026-05-04 22:07 | 50.47581 | 19.22416 | 2591 ft | 141 kts | 264° |
| 2026-05-04 22:07 | 50.47581 | 19.20882 | 2402 ft | 138 kts | 265° |
| 2026-05-04 22:08 | 50.47582 | 19.19371 | 2222 ft | 139 kts | 265° |
| 2026-05-04 22:08 | 50.47584 | 19.17847 | 2038 ft | 141 kts | 265° |
| 2026-05-04 22:08 | 50.47585 | 19.16283 | 1837 ft | 146 kts | 266° |
| 2026-05-04 22:08 | 50.47587 | 19.14654 | 1636 ft | 153 kts | 268° |
| 2026-05-04 22:09 | 50.47591 | 19.12972 | 1416 ft | 154 kts | 267° |
| 2026-05-04 22:09 | 50.47590 | 19.11304 | 1178 ft | 152 kts | 268° |
| 2026-05-04 22:09 | 50.47592 | 19.09642 | 1008 ft | 145 kts | 268° |
| 2026-05-04 22:09 | 50.47599 | 19.08228 | 997 ft | 108 kts | 270° |
| 2026-05-04 22:10 | 50.47600 | 19.07441 | 1000 ft | 27 kts | 270° |
| 2026-05-04 22:10 | 50.47591 | 19.07230 | 1001 ft | 14 kts | 262° |
| 2026-05-04 22:10 | 50.47565 | 19.07085 | 1000 ft | 14 kts | 246° |
| 2026-05-04 22:10 | 50.47523 | 19.06949 | 1002 ft | 13 kts | 240° |
| 2026-05-04 22:11 | 50.47477 | 19.06824 | 1001 ft | 13 kts | 240° |
| 2026-05-04 22:11 | 50.47434 | 19.06705 | 1001 ft | 13 kts | 240° |
| 2026-05-04 22:11 | 50.47368 | 19.06626 | 997 ft | 12 kts | 191° |
| 2026-05-04 22:11 | 50.47277 | 19.06630 | 998 ft | 14 kts | 164° |
| 2026-05-04 22:12 | 50.47236 | 19.06786 | 997 ft | 20 kts | 90° |
| 2026-05-04 22:12 | 50.47235 | 19.07016 | 1002 ft | 18 kts | 91° |
| 2026-05-04 22:12 | 50.47236 | 19.07212 | 1000 ft | 21 kts | 89° |
| 2026-05-04 22:12 | 50.47234 | 19.07444 | 1002 ft | 24 kts | 90° |
| 2026-05-04 22:13 | 50.47234 | 19.07673 | 1002 ft | 22 kts | 90° |
| 2026-05-04 22:13 | 50.47233 | 19.07923 | 1001 ft | 24 kts | 90° |
| 2026-05-04 22:13 | 50.47233 | 19.08158 | 1000 ft | 21 kts | 90° |
| 2026-05-04 22:13 | 50.47232 | 19.08372 | 1001 ft | 18 kts | 90° |
| 2026-05-04 22:14 | 50.47222 | 19.08460 | 1001 ft | 6 kts | 135° |
| 2026-05-04 22:14 | 50.47197 | 19.08472 | 997 ft | 6 kts | 181° |
| 2026-05-04 22:14 | 50.47149 | 19.08471 | 997 ft | 3 kts | 180° |
| 2026-05-04 22:14 | 50.47146 | 19.08471 | 997 ft | 0 kts | 180° |